Time;durP1;ratioP1;P1;durP2;ratioP2;P2;SDS_P1;SDS_P2;PMS_P1;PMS_P2;Temp;Humidity;BMP_temperature;BMP_pressure;BME280_temperature;BME280_humidity;BME280_pressure;Samples;Min_cycle;Max_cycle;Signal;HPM_P1;HPM_P2
2021/11/24 00:00:52;;;;;;;6.07;1.45;;;7.00;99.90;;;5.36;100.00;101725.84;4883495;28;20024;-81
2021/11/24 00:04:17;;;;;;;3.75;1.58;;;6.90;99.90;;;5.38;100.00;101733.66;4815106;28;20773;-78
2021/11/24 00:07:43;;;;;;;2.95;1.40;;;6.90;99.90;;;5.35;100.00;101727.56;4824860;28;20097;-78
2021/11/24 00:10:13;;;;;;;9.13;2.03;;;7.00;99.90;;;5.42;100.00;101724.91;4898714;28;20042;-79
2021/11/24 00:12:44;;;;;;;12.27;2.08;;;7.00;99.90;;;5.39;100.00;101720.56;4850326;28;20114;-79
2021/11/24 00:15:11;;;;;;;5.20;2.00;;;6.90;99.90;;;5.40;100.00;101713.59;4843250;28;20467;-79
2021/11/24 00:17:38;;;;;;;7.25;2.30;;;7.00;99.90;;;5.41;100.00;101725.78;4910858;28;20040;-78
2021/11/24 00:20:07;;;;;;;6.68;2.58;;;7.00;99.90;;;5.42;100.00;101715.34;4925117;28;21040;-79
2021/11/24 00:22:36;;;;;;;17.55;2.60;;;7.00;99.90;;;5.43;100.00;101708.38;4939589;28;20494;-79
2021/11/24 00:25:03;;;;;;;5.22;1.90;;;7.00;99.90;;;5.40;100.00;101701.44;4931402;28;20022;-79
2021/11/24 00:27:29;;;;;;;14.27;2.42;;;6.90;99.90;;;5.35;100.00;101701.44;4947122;28;22601;-79
2021/11/24 00:29:57;;;;;;;10.57;2.50;;;6.90;99.90;;;5.25;100.00;101692.00;4925002;28;20480;-79
2021/11/24 00:32:25;;;;;;;11.35;2.30;;;6.80;99.90;;;5.22;100.00;101696.38;4913704;28;20031;-79
2021/11/24 00:34:53;;;;;;;8.00;2.58;;;6.80;99.90;;;5.23;100.00;101690.28;4892677;28;21478;-79
2021/11/24 00:37:19;;;;;;;12.65;2.53;;;6.80;99.90;;;5.27;100.00;101678.91;4883241;28;20074;-79
2021/11/24 00:39:46;;;;;;;9.57;2.15;;;6.80;99.90;;;5.28;100.00;101678.88;4901694;28;20549;-79
2021/11/24 00:42:11;;;;;;;11.73;2.60;;;6.90;99.90;;;5.32;100.00;101684.97;4899505;28;20101;-78
2021/11/24 00:44:38;;;;;;;6.40;2.38;;;6.90;99.90;;;5.29;100.00;101688.47;4894094;28;20026;-78
2021/11/24 00:47:09;;;;;;;13.60;2.10;;;6.90;99.90;;;5.34;100.00;101694.50;4910709;28;20402;-79
2021/11/24 00:49:39;;;;;;;7.50;2.47;;;6.90;99.90;;;5.35;100.00;101692.75;4921714;28;20464;-79
2021/11/24 00:52:10;;;;;;;6.57;2.08;;;6.90;99.90;;;5.35;100.00;101696.22;4919191;28;20635;-79
2021/11/24 00:54:36;;;;;;;12.40;2.67;;;7.00;99.90;;;5.38;100.00;101694.47;4919638;28;20049;-79
2021/11/24 00:57:04;;;;;;;8.00;1.95;;;6.90;99.90;;;5.33;100.00;101691.91;4908078;28;20575;-79
2021/11/24 00:59:30;;;;;;;8.50;2.58;;;6.90;99.90;;;5.35;100.00;101682.31;4900532;28;20462;-79
2021/11/24 01:01:56;;;;;;;13.35;2.45;;;6.90;99.90;;;5.35;100.00;101684.91;4882820;28;20035;-79
2021/11/24 01:04:29;;;;;;;9.55;2.47;;;6.90;99.90;;;5.40;100.00;101688.38;4854742;28;20046;-78
2021/11/24 01:06:55;;;;;;;11.60;2.72;;;6.90;99.90;;;5.36;100.00;101691.91;4890747;28;20454;-79
2021/11/24 01:09:21;;;;;;;11.35;3.22;;;6.90;99.90;;;5.34;100.00;101688.44;4899574;28;20034;-79
2021/11/24 01:11:48;;;;;;;7.57;2.15;;;6.90;99.90;;;5.35;100.00;101695.38;4928943;28;20073;-79
2021/11/24 01:14:14;;;;;;;11.48;2.17;;;6.90;99.90;;;5.36;100.00;101697.13;4894861;28;20054;-78
2021/11/24 01:16:44;;;;;;;6.45;2.05;;;6.90;99.90;;;5.34;100.00;101697.13;4862083;28;20042;-79
2021/11/24 01:19:11;;;;;;;4.50;1.95;;;6.90;99.90;;;5.38;100.00;101700.59;4863665;28;20096;-80
2021/11/24 01:21:37;;;;;;;11.32;1.95;;;6.90;99.90;;;5.36;100.00;101684.06;4903371;28;20026;-80
2021/11/24 01:24:03;;;;;;;16.10;2.58;;;7.00;99.90;;;5.38;100.00;101690.13;4880961;28;20080;-80
2021/11/24 01:26:29;;;;;;;9.43;2.78;;;7.00;99.90;;;5.37;100.00;101675.31;4907202;28;20483;-79
2021/11/24 01:29:03;;;;;;;12.50;1.58;;;7.00;99.90;;;5.35;100.00;101685.78;4936977;28;20027;-79
2021/11/24 01:31:29;;;;;;;14.20;1.80;;;7.00;99.90;;;5.35;100.00;101677.94;4926448;28;20092;-80
2021/11/24 01:33:55;;;;;;;10.90;1.50;;;7.00;99.90;;;5.37;100.00;101672.72;4891182;28;20030;-80
2021/11/24 01:36:21;;;;;;;8.10;1.70;;;7.00;99.90;;;5.42;100.00;101664.81;4894510;28;20030;-80
2021/11/24 01:38:54;;;;;;;8.00;1.63;;;7.00;99.90;;;5.42;100.00;101664.81;4914114;28;20029;-80
2021/11/24 01:41:20;;;;;;;6.53;1.58;;;7.10;99.90;;;5.40;100.00;101661.38;4910370;28;20058;-80
2021/11/24 01:43:46;;;;;;;5.40;1.63;;;7.10;99.90;;;5.41;100.00;101658.75;4913225;28;20028;-80
2021/11/24 01:46:12;;;;;;;12.15;1.63;;;7.10;99.90;;;5.47;100.00;101663.91;4947672;28;20178;-80
2021/11/24 01:48:47;;;;;;;2.25;1.30;;;7.10;99.90;;;5.46;100.00;101663.91;4935111;28;20138;-80
2021/11/24 01:51:13;;;;;;;3.03;1.17;;;7.10;99.90;;;5.45;100.00;101650.00;4878998;28;20038;-80
2021/11/24 01:53:39;;;;;;;8.60;1.25;;;7.10;99.90;;;5.53;100.00;101647.31;4890749;28;20150;-79
2021/11/24 01:56:05;;;;;;;10.85;1.00;;;7.10;99.90;;;5.50;100.00;101647.34;4855035;28;20036;-80
2021/11/24 01:58:37;;;;;;;6.68;1.13;;;7.20;99.90;;;5.47;100.00;101632.56;4919172;28;20049;-80
2021/11/24 02:01:04;;;;;;;4.45;1.13;;;7.20;99.90;;;5.51;100.00;101639.50;4928201;28;20039;-80
2021/11/24 02:03:31;;;;;;;6.93;1.00;;;7.10;99.90;;;5.47;100.00;101624.72;4927570;28;20109;-80
2021/11/24 02:05:58;;;;;;;2.60;1.27;;;7.10;99.90;;;5.47;100.00;101632.56;4943130;28;20125;-79
2021/11/24 02:08:32;;;;;;;1.92;0.98;;;7.10;99.90;;;5.44;100.00;101627.38;4943764;28;20049;-80
2021/11/24 02:10:58;;;;;;;9.27;1.30;;;7.10;99.90;;;5.50;100.00;101622.06;4933438;28;20030;-80
2021/11/24 02:13:24;;;;;;;11.32;2.33;;;7.10;99.90;;;5.48;100.00;101616.00;4936305;28;20026;-79
2021/11/24 02:15:50;;;;;;;6.72;1.17;;;7.10;99.90;;;5.46;100.00;101612.53;4942200;28;20065;-80
2021/11/24 02:18:20;;;;;;;4.05;1.88;;;;;;;5.48;100.00;101610.78;4957958;28;20045;-80
2021/11/24 02:20:48;;;;;;;12.50;1.80;;;7.10;99.90;;;5.45;100.00;101597.75;4928865;28;20039;-80
2021/11/24 02:23:15;;;;;;;5.82;1.58;;;7.10;99.90;;;5.45;100.00;101587.31;4915727;28;20039;-80
2021/11/24 02:25:44;;;;;;;4.22;1.75;;;7.10;99.90;;;5.46;100.00;101585.56;4914481;28;20027;-79
2021/11/24 02:28:15;;;;;;;7.60;1.90;;;7.10;99.90;;;5.48;100.00;101583.78;4911585;28;20034;-80
2021/11/24 02:30:41;;;;;;;6.07;2.38;;;7.10;99.90;;;5.49;100.00;101590.75;4913503;28;20458;-80
2021/11/24 02:33:08;;;;;;;14.30;2.33;;;7.10;99.90;;;5.50;100.00;101579.41;4898661;28;20069;-80
2021/11/24 02:35:39;;;;;;;10.68;2.58;;;7.10;99.90;;;5.47;100.00;101582.06;4944322;28;20038;-80
2021/11/24 02:38:07;;;;;;;8.93;2.60;;;7.10;99.90;;;5.49;100.00;101586.41;4920053;28;20038;-80
2021/11/24 02:40:34;;;;;;;10.10;1.83;;;7.10;99.90;;;5.49;100.00;101596.84;4956387;28;20025;-80
2021/11/24 02:43:12;;;;;;;6.45;2.03;;;7.00;99.90;;;5.51;100.00;101617.72;4894844;28;20101;-79
2021/11/24 02:45:39;;;;;;;10.02;1.80;;;7.00;99.90;;;5.42;100.00;101829.38;4923961;28;20414;-79
2021/11/24 02:48:05;;;;;;;12.68;2.92;;;7.00;99.90;;;5.34;100.00;102015.75;4932431;28;20117;-79
2021/11/24 02:50:39;;;;;;;10.48;2.13;;;7.00;99.90;;;5.34;100.00;101976.59;4901040;28;20039;-79
2021/11/24 02:53:05;;;;;;;10.50;2.38;;;6.90;99.90;;;5.36;100.00;101932.19;4895830;28;20031;-80
2021/11/24 02:55:31;;;;;;;11.88;2.90;;;7.00;99.90;;;5.36;100.00;101934.78;4902852;28;20085;-80
2021/11/24 02:57:57;;;;;;;8.85;2.80;;;7.00;99.90;;;5.35;100.00;101967.00;4883709;28;20117;-80
2021/11/24 03:00:28;;;;;;;15.75;2.97;;;7.00;99.90;;;5.37;100.00;102034.91;4915462;28;20027;-80
2021/11/24 03:02:55;;;;;;;7.13;2.90;;;7.00;99.90;;;5.35;100.00;101938.25;4930585;28;20512;-80
2021/11/24 03:05:36;;;;;;;12.25;2.92;;;7.00;99.90;;;5.39;100.00;101916.47;4884281;28;20136;-80
2021/11/24 03:08:02;;;;;;;8.55;2.80;;;7.00;99.90;;;5.40;100.00;101905.16;4911911;28;20034;-79
2021/11/24 03:10:30;;;;;;;11.30;3.58;;;7.00;99.90;;;5.36;100.00;101906.06;4913819;28;20233;-77
2021/11/24 03:13:01;;;;;;;15.02;3.28;;;;;;;5.38;100.00;101921.69;4907894;28;20091;-78
2021/11/24 03:15:28;;;;;;;7.00;3.13;;;7.00;99.90;;;5.41;100.00;101901.66;4919292;28;20053;-77
2021/11/24 03:17:54;;;;;;;10.15;3.35;;;7.00;99.90;;;5.42;100.00;101889.47;4919534;28;20035;-77
2021/11/24 03:20:24;;;;;;;9.27;3.53;;;7.00;99.90;;;5.39;100.00;101887.75;4911420;28;20106;-78
2021/11/24 03:22:53;;;;;;;10.00;3.13;;;7.00;99.90;;;5.35;100.00;101870.34;4887903;28;20042;-78
2021/11/24 03:25:19;;;;;;;14.90;3.50;;;7.00;99.90;;;5.34;100.00;101872.09;4900268;28;20031;-78
2021/11/24 03:27:45;;;;;;;12.00;3.63;;;6.90;99.90;;;5.31;100.00;101866.91;4881323;28;20499;-78
2021/11/24 03:30:20;;;;;;;12.90;3.85;;;6.90;99.90;;;5.31;100.00;101858.19;4953456;28;20057;-77
2021/11/24 03:32:47;;;;;;;13.50;4.25;;;6.90;99.90;;;5.38;100.00;101859.91;4941045;28;20034;-79
2021/11/24 03:35:17;;;;;;;17.45;4.75;;;6.90;99.90;;;5.35;100.00;101833.78;4881758;28;20037;-79
2021/11/24 03:37:51;;;;;;;13.27;4.65;;;6.90;99.90;;;5.37;100.00;101839.00;4879663;28;20060;-80
2021/11/24 03:40:28;;;;;;;12.98;4.95;;;6.90;99.90;;;5.32;100.00;101829.47;4876289;28;20483;-79
2021/11/24 03:42:54;;;;;;;10.05;4.68;;;6.90;99.90;;;5.31;100.00;101825.13;4909645;28;20047;-79
2021/11/24 03:45:25;;;;;;;19.60;5.22;;;6.90;99.90;;;5.32;100.00;101815.53;4919752;28;20086;-80
2021/11/24 03:47:52;;;;;;;11.00;4.30;;;6.90;99.90;;;5.31;100.00;101812.06;4941702;28;20035;-80
2021/11/24 03:50:21;;;;;;;12.77;3.63;;;6.90;99.90;;;5.31;100.00;101809.47;4919608;28;20491;-79
2021/11/24 03:52:48;;;;;;;9.95;3.65;;;6.90;99.90;;;5.34;100.00;101796.38;4918182;28;20035;-79
2021/11/24 03:55:16;;;;;;;16.13;4.53;;;6.90;99.90;;;5.29;100.00;101795.53;4948461;28;20586;-79
2021/11/24 03:57:43;;;;;;;9.95;4.00;;;7.00;99.90;;;5.36;100.00;101785.91;4909031;28;20099;-80
2021/11/24 04:00:23;;;;;;;9.95;3.15;;;7.00;99.90;;;5.31;100.00;101777.22;4944279;28;20022;-79
2021/11/24 04:02:51;;;;;;;8.40;3.85;;;7.00;99.90;;;5.36;100.00;101788.53;4947052;28;20022;-79
2021/11/24 04:05:18;;;;;;;15.88;4.10;;;7.00;99.90;;;5.34;100.00;101788.53;4918988;28;20037;-80
2021/11/24 04:07:44;;;;;;;13.45;4.15;;;7.00;99.90;;;5.30;100.00;101775.50;4936797;28;20023;-80
2021/11/24 04:10:12;;;;;;;10.57;4.40;;;6.90;99.90;;;5.25;100.00;101778.16;4878386;28;20038;-80
2021/11/24 04:12:42;;;;;;;12.18;3.92;;;6.90;99.90;;;5.24;100.00;101771.19;4922291;28;20040;-79
2021/11/24 04:15:15;;;;;;;17.20;4.05;;;6.90;99.90;;;5.24;100.00;101771.19;4939201;28;20075;-80
2021/11/24 04:17:43;;;;;;;8.88;3.47;;;6.90;99.90;;;5.27;100.00;101765.97;4928252;28;20071;-79
2021/11/24 04:20:15;;;;;;;14.50;3.70;;;6.90;99.90;;;5.27;100.00;101776.41;4936517;28;20076;-80
2021/11/24 04:22:42;;;;;;;13.38;3.80;;;6.90;99.90;;;5.26;100.00;101752.91;4925927;28;20098;-79
2021/11/24 04:25:10;;;;;;;14.98;4.13;;;6.90;99.90;;;5.28;100.00;101769.44;4944254;28;20053;-79
2021/11/24 04:27:39;;;;;;;15.23;4.28;;;6.90;99.90;;;5.26;100.00;101759.00;4934181;28;20031;-79
2021/11/24 04:30:07;;;;;;;11.48;4.35;;;6.90;99.90;;;5.25;100.00;101759.88;4939230;28;20030;-79
2021/11/24 04:32:33;;;;;;;11.95;4.32;;;6.90;99.90;;;5.25;100.00;101756.41;4921397;28;20022;-79
2021/11/24 04:34:59;;;;;;;11.50;4.75;;;6.90;99.90;;;5.21;100.00;101749.47;4915052;28;20229;-79
2021/11/24 04:37:25;;;;;;;19.98;5.22;;;6.90;99.90;;;5.24;100.00;101755.53;4917877;28;20034;-78
2021/11/24 04:39:51;;;;;;;11.90;4.82;;;6.90;99.90;;;5.23;100.00;101755.56;4890919;28;20069;-80
2021/11/24 04:42:17;;;;;;;11.77;4.43;;;6.90;99.90;;;5.23;100.00;101760.78;4928192;28;20041;-80
2021/11/24 04:44:44;;;;;;;12.82;5.53;;;6.90;99.90;;;5.23;100.00;101748.59;4935697;28;20042;-80
2021/11/24 04:47:10;;;;;;;15.70;4.78;;;6.90;99.90;;;5.23;100.00;101751.19;4964794;28;20497;-80
2021/11/24 04:49:36;;;;;;;10.73;5.03;;;6.90;99.90;;;5.21;100.00;101744.25;4932558;28;20073;-79
2021/11/24 04:52:03;;;;;;;13.07;4.93;;;6.90;99.90;;;5.26;100.00;101748.53;4881876;28;20027;-80
2021/11/24 04:54:29;;;;;;;12.07;5.22;;;6.90;99.90;;;5.26;100.00;101745.06;4871370;28;20409;-79
2021/11/24 04:57:01;;;;;;;14.02;5.15;;;6.90;99.90;;;5.27;100.00;101746.78;4941580;28;20499;-79
2021/11/24 04:59:27;;;;;;;10.80;5.60;;;6.90;99.90;;;5.24;100.00;101746.84;4914173;28;20082;-80
2021/11/24 05:01:52;;;;;;;14.57;5.40;;;6.90;99.90;;;5.25;100.00;101731.16;4901009;28;20109;-79
2021/11/24 05:04:21;;;;;;;17.50;5.57;;;6.90;99.90;;;5.27;100.00;101765.06;4947104;28;20378;-79
2021/11/24 05:06:50;;;;;;;12.38;4.80;;;6.90;99.90;;;5.26;100.00;101750.28;4936589;28;20061;-79
2021/11/24 05:09:16;;;;;;;9.00;5.05;;;6.90;99.90;;;5.24;100.00;101745.09;4904814;28;20019;-80
2021/11/24 05:11:42;;;;;;;15.05;5.75;;;6.90;99.90;;;5.23;100.00;101739.91;4946453;28;20105;-80
2021/11/24 05:14:13;;;;;;;12.70;5.43;;;7.00;99.90;;;5.22;100.00;101733.78;4917190;28;20088;-79
2021/11/24 05:16:45;;;;;;;16.00;5.13;;;6.90;99.90;;;5.22;100.00;101733.78;4874171;28;20034;-79
2021/11/24 05:19:17;;;;;;;15.10;5.28;;;6.80;99.90;;;5.19;100.00;101730.34;4924442;28;20443;-80
2021/11/24 05:21:50;;;;;;;12.73;5.45;;;6.80;99.90;;;5.17;100.00;101719.06;4938524;28;20043;-79
2021/11/24 05:24:21;;;;;;;15.18;5.60;;;6.80;99.90;;;5.20;100.00;101721.63;4897387;28;20103;-79
2021/11/24 05:26:56;;;;;;;13.32;5.65;;;6.80;99.90;;;5.18;100.00;101719.00;4895783;28;20128;-79
2021/11/24 05:29:22;;;;;;;16.90;5.60;;;6.70;99.90;;;5.19;100.00;101718.16;4883645;28;20055;-79
2021/11/24 05:31:49;;;;;;;13.02;6.32;;;6.80;99.90;;;5.13;100.00;101715.59;4890879;28;20130;-80
2021/11/24 05:34:15;;;;;;;14.10;5.35;;;6.70;99.90;;;5.11;100.00;101715.59;4920478;28;20027;-80
2021/11/24 05:36:44;;;;;;;16.20;6.38;;;6.70;99.90;;;5.18;100.00;101729.47;4912051;28;20030;-80
2021/11/24 05:39:11;;;;;;;8.32;4.95;;;6.80;99.90;;;5.16;100.00;101722.53;4928037;28;20034;-79
2021/11/24 05:41:41;;;;;;;17.13;5.85;;;6.70;99.90;;;5.13;100.00;101723.41;4909185;28;20022;-80
2021/11/24 05:44:25;;;;;;;14.57;5.80;;;6.70;99.90;;;5.09;100.00;101717.34;4917425;28;20035;-80
2021/11/24 05:47:01;;;;;;;14.35;6.10;;;6.70;99.90;;;5.04;100.00;101708.69;4930867;28;20037;-79
2021/11/24 05:49:29;;;;;;;;;;;6.60;99.90;;;5.00;100.00;101708.75;4962226;28;20076;-80
2021/11/24 05:51:57;;;;;;;14.10;5.60;;;6.60;99.90;;;5.00;100.00;101712.22;4877585;28;20108;-80
2021/11/24 05:54:26;;;;;;;15.30;6.40;;;6.60;99.90;;;5.01;100.00;101711.34;4900226;28;20048;-80
2021/11/24 05:56:52;;;;;;;14.75;6.45;;;6.60;99.90;;;5.02;100.00;101723.50;4905671;28;20055;-80
2021/11/24 05:59:19;;;;;;;13.55;5.43;;;6.60;99.90;;;5.06;100.00;101722.59;4930024;28;20094;-80
2021/11/24 06:01:47;;;;;;;14.82;6.45;;;6.70;99.90;;;5.08;100.00;101723.47;4879887;28;20097;-79
2021/11/24 06:04:22;;;;;;;14.68;6.15;;;6.70;99.90;;;5.07;100.00;101713.03;4922033;28;20040;-80
2021/11/24 06:06:48;;;;;;;11.68;5.75;;;6.70;99.90;;;5.06;100.00;101714.78;4928798;28;20026;-79
2021/11/24 06:09:14;;;;;;;18.80;6.15;;;6.70;99.90;;;5.04;100.00;101716.53;4896208;28;20046;-80
2021/11/24 06:11:46;;;;;;;17.42;6.20;;;6.70;99.90;;;5.09;100.00;101725.19;4892235;28;20023;-81
2021/11/24 06:14:12;;;;;;;12.13;5.50;;;6.70;99.90;;;5.08;100.00;101718.25;4880175;28;20402;-80
2021/11/24 06:16:38;;;;;;;12.32;4.80;;;6.70;99.90;;;5.11;100.00;101722.56;4909915;28;20029;-79
2021/11/24 06:19:04;;;;;;;11.65;5.13;;;6.70;99.90;;;5.08;100.00;101728.69;4884972;28;20039;-80
2021/11/24 06:21:30;;;;;;;17.42;5.43;;;6.70;99.90;;;5.13;100.00;101720.81;4906065;28;20113;-80
2021/11/24 06:24:03;;;;;;;12.45;5.20;;;6.70;99.90;;;5.07;100.00;101713.03;4945387;28;20027;-80
2021/11/24 06:26:29;;;;;;;11.40;4.82;;;6.70;99.90;;;5.09;100.00;101712.13;4916517;28;20041;-81
2021/11/24 06:28:55;;;;;;;16.05;5.38;;;6.70;99.90;;;5.02;100.00;101715.66;4949455;28;20030;-80
2021/11/24 06:31:25;;;;;;;171.07;157.07;;;6.70;99.90;;;5.07;100.00;101713.03;4905202;28;20022;-79
2021/11/24 06:33:53;;;;;;;10.95;4.75;;;6.70;99.90;;;5.06;100.00;101709.56;4941612;28;20138;-80
2021/11/24 06:36:24;;;;;;;14.45;5.05;;;6.70;99.90;;;5.10;100.00;101724.31;4929670;28;20046;-79
2021/11/24 06:38:55;;;;;;;11.38;4.47;;;6.70;99.90;;;5.10;100.00;101713.88;4933022;28;20030;-80
2021/11/24 06:41:21;;;;;;;15.52;4.47;;;6.70;99.90;;;5.16;100.00;101719.91;4927494;28;20092;-81
2021/11/24 06:43:47;;;;;;;11.93;4.45;;;6.70;99.90;;;5.14;100.00;101720.81;4961303;28;20034;-80
2021/11/24 06:46:13;;;;;;;12.30;5.00;;;6.80;99.90;;;5.18;100.00;101719.00;4925220;28;20026;-80
2021/11/24 06:48:39;;;;;;;10.23;4.82;;;6.80;99.90;;;5.16;100.00;101720.78;4943983;28;20054;-80
2021/11/24 06:51:05;;;;;;;9.63;4.35;;;6.80;99.90;;;5.18;100.00;101718.16;4941304;28;20034;-80
2021/11/24 06:53:31;;;;;;;15.57;4.90;;;6.80;99.90;;;5.17;100.00;101717.28;4936672;28;20035;-80
2021/11/24 06:55:59;;;;;;;10.25;4.25;;;6.80;99.90;;;5.17;100.00;101716.44;4939683;28;20054;-80
2021/11/24 06:58:25;;;;;;;12.60;4.30;;;6.80;99.90;;;5.13;100.00;101721.66;4927161;28;20039;-78
2021/11/24 07:00:51;;;;;;;8.27;4.82;;;6.70;99.90;;;5.16;100.00;101732.97;4905173;28;20558;-80
2021/11/24 07:03:17;;;;;;;10.20;4.18;;;6.80;99.90;;;5.17;100.00;101727.75;4950350;28;20506;-80
2021/11/24 07:05:43;;;;;;;10.57;5.20;;;6.80;99.90;;;5.26;100.00;101745.06;4954949;28;20039;-79
2021/11/24 07:08:09;;;;;;;13.00;5.32;;;6.80;99.90;;;5.27;100.00;101728.50;4907867;28;20019;-80
2021/11/24 07:10:38;;;;;;;17.83;5.57;;;6.80;99.90;;;5.26;100.00;101732.03;4911590;28;20034;-80
2021/11/24 07:13:06;;;;;;;18.75;6.28;;;6.80;99.90;;;5.23;100.00;101738.13;4909914;28;20142;-81
2021/11/24 07:15:33;;;;;;;12.27;4.90;;;6.90;99.90;;;5.25;100.00;101728.56;4896709;28;20049;-80
2021/11/24 07:17:59;;;;;;;12.52;5.30;;;6.80;99.90;;;5.28;100.00;101728.50;4925450;28;20043;-81
2021/11/24 07:20:25;;;;;;;14.80;5.40;;;6.80;99.90;;;5.23;100.00;101725.09;4920972;28;20034;-79
2021/11/24 07:22:51;;;;;;;18.17;5.40;;;6.80;99.90;;;5.18;100.00;101718.16;4919776;28;20039;-80
2021/11/24 07:25:22;;;;;;;13.38;5.78;;;6.70;99.90;;;5.15;100.00;101708.59;4924598;28;20205;-80
2021/11/24 07:27:49;;;;;;;15.45;6.20;;;6.80;99.90;;;5.21;100.00;101710.31;4893098;28;20142;-80
2021/11/24 07:30:18;;;;;;;17.73;6.15;;;6.80;99.90;;;5.29;100.00;101709.38;4924575;28;20487;-80
2021/11/24 07:32:52;;;;;;;13.57;6.10;;;7.00;99.90;;;5.43;100.00;101727.50;4915739;28;20039;-80
2021/11/24 07:35:18;;;;;;;17.67;6.88;;;7.90;99.90;;;5.50;100.00;101721.34;4898783;28;20046;-80
2021/11/24 07:37:44;;;;;;;20.58;6.63;;;7.10;99.90;;;5.47;100.00;101720.53;4908169;28;20499;-80
2021/11/24 07:40:18;;;;;;;18.58;6.68;;;7.00;99.90;;;5.50;100.00;101712.66;4891224;28;20038;-81
2021/11/24 07:42:44;;;;;;;16.70;6.70;;;7.10;99.90;;;5.50;100.00;101708.28;4889989;28;20073;-80
2021/11/24 07:45:10;;;;;;;21.85;6.82;;;7.10;99.90;;;5.45;100.00;101694.41;4876610;28;20416;-82
2021/11/24 07:47:36;;;;;;;16.65;6.68;;;7.10;99.90;;;5.54;100.00;101696.91;4880893;28;20035;-80
2021/11/24 07:50:03;;;;;;;21.05;7.20;;;7.10;99.90;;;5.52;100.00;101674.31;4864597;28;20050;-81
2021/11/24 07:52:33;;;;;;;16.20;6.78;;;;;;;5.55;100.00;101680.38;4919140;28;20085;-80
2021/11/24 07:54:59;;;;;;;19.88;7.45;;;7.20;99.90;;;5.60;100.00;101676.84;4883260;28;20190;-81
2021/11/24 07:57:25;;;;;;;14.02;6.68;;;7.10;99.90;;;5.64;100.00;101679.41;4882488;28;20052;-85
2021/11/24 07:59:52;;;;;;;19.88;7.00;;;7.20;99.90;;;5.58;100.00;101662.94;4867405;28;20491;-83
2021/11/24 08:02:18;;;;;;;16.40;7.20;;;7.10;99.90;;;5.60;100.00;101663.78;4917822;28;20521;-83
2021/11/24 08:04:51;;;;;;;22.73;7.30;;;7.10;99.90;;;5.57;100.00;101653.34;4901627;28;20022;-86
2021/11/24 08:07:18;;;;;;;14.15;6.15;;;7.10;99.90;;;5.50;100.00;101650.81;4933204;28;20026;-83
2021/11/24 08:09:44;;;;;;;21.27;6.63;;;7.10;99.90;;;5.52;100.00;101648.19;4904515;28;20034;-83
2021/11/24 08:12:10;;;;;;;19.15;7.43;;;7.10;99.90;;;5.63;100.00;101653.28;4877857;28;20035;-85
2021/11/24 08:14:48;;;;;;;19.52;6.55;;;7.20;99.90;;;5.66;100.00;101663.69;4896709;28;20046;-85
2021/11/24 08:17:26;;;;;;;22.02;7.00;;;7.20;99.90;;;5.68;100.00;101662.81;4921946;28;20495;-84
2021/11/24 08:19:52;;;;;;;17.55;6.40;;;7.20;99.90;;;5.73;100.00;101658.41;4918906;28;20062;-84
2021/11/24 08:22:18;;;;;;;14.98;5.88;;;7.30;99.90;;;5.78;100.00;101652.25;4900586;28;20088;-85
2021/11/24 08:24:53;;;;;;;20.92;6.63;;;;;;;5.76;100.00;101658.34;4899585;28;20533;-85
2021/11/24 08:27:19;;;;;;;18.13;5.70;;;7.30;99.90;;;5.75;100.00;101656.63;4910835;28;20022;-80
2021/11/24 08:29:45;;;;;;;19.60;6.65;;;7.30;99.90;;;5.80;100.00;101661.78;4927156;28;20505;-81
2021/11/24 08:32:11;;;;;;;16.88;5.07;;;7.40;99.90;;;5.86;100.00;101651.28;4880080;28;20039;-80
2021/11/24 08:34:45;;;;;;;12.85;5.53;;;7.40;99.90;;;5.90;100.00;101644.28;4935208;28;20414;-80
2021/11/24 08:37:11;;;;;;;14.40;5.00;;;7.40;99.90;;;5.86;100.00;101643.44;4907911;28;20093;-80
2021/11/24 08:39:38;;;;;;;14.20;4.85;;;7.50;99.90;;;5.95;100.00;101650.31;4920702;28;20034;-79
2021/11/24 08:42:08;;;;;;;10.82;5.25;;;7.50;99.90;;;5.91;100.00;101641.63;4945090;28;20046;-80
2021/11/24 08:44:35;;;;;;;13.80;6.03;;;7.50;99.90;;;5.98;100.00;101646.81;4940263;28;20064;-80
2021/11/24 08:47:02;;;;;;;12.88;5.28;;;7.50;99.90;;;6.05;100.00;101640.63;4911572;28;20081;-79
2021/11/24 08:49:28;;;;;;;10.95;4.65;;;7.60;99.90;;;5.98;100.00;101636.34;4880182;28;20097;-80
2021/11/24 08:51:54;;;;;;;12.90;5.25;;;7.60;99.90;;;6.04;100.00;101637.13;4892377;28;20035;-79
2021/11/24 08:54:28;;;;;;;8.07;4.50;;;7.60;99.90;;;6.04;100.00;101634.50;4908624;28;20045;-80
2021/11/24 08:56:54;;;;;;;8.48;5.43;;;7.60;99.90;;;6.05;100.00;101630.19;4887944;28;20034;-80
2021/11/24 08:59:21;;;;;;;11.45;4.63;;;7.60;99.90;;;6.11;100.00;101633.56;4908563;28;20022;-80
2021/11/24 09:02:10;;;;;;;11.45;4.72;;;7.70;99.90;;;6.24;100.00;101630.75;4913945;28;20026;-80
2021/11/24 09:05:00;;;;;;;9.60;3.75;;;7.70;99.90;;;6.25;100.00;101622.91;4911768;28;20487;-80
2021/11/24 09:07:46;;;;;;;9.40;4.07;;;7.80;99.90;;;6.47;100.00;101635.66;4883153;28;20132;-80
2021/11/24 09:10:31;;;;;;;;;;;7.80;99.90;;;6.43;100.00;101626.13;4909806;28;20042;-80
2021/11/24 09:13:14;;;;;;;7.40;3.45;;;7.80;99.90;;;6.34;100.00;101616.66;4943787;28;20283;-80
2021/11/24 09:16:00;;;;;;;11.57;4.03;;;7.90;99.90;;;6.29;100.00;101608.91;4892988;28;20774;-80
2021/11/24 09:18:44;;;;;;;9.35;3.45;;;7.90;99.90;;;6.46;100.00;101620.88;4909382;28;20049;-81
2021/11/24 09:21:11;;;;;;;7.82;3.40;;;8.00;99.90;;;6.58;100.00;101628.50;4927969;28;20041;-80
2021/11/24 09:23:54;;;;;;;6.63;3.03;;;8.20;99.90;;;6.71;100.00;101629.19;4903323;28;20042;-80
2021/11/24 09:27:12;;;;;;;6.75;3.95;;;8.30;99.90;;;6.72;100.00;101621.31;4896361;28;20711;-80
2021/11/24 09:30:20;;;;;;;6.93;3.92;;;8.40;99.90;;;6.81;100.00;101614.22;4869826;28;20109;-80
2021/11/24 09:33:10;;;;;;;6.32;3.60;;;8.40;99.90;;;6.75;100.00;101604.69;4902142;28;20191;-80
2021/11/24 09:35:57;;;;;;;6.97;3.58;;;8.40;99.90;;;6.76;100.00;101620.38;4939231;28;20033;-82
2021/11/24 09:38:42;;;;;;;8.95;3.13;;;8.30;99.90;;;6.83;100.00;101621.13;4897126;28;20466;-82
2021/11/24 09:41:51;;;;;;;8.13;3.85;;;8.30;99.90;;;6.71;100.00;101595.16;4884958;28;20043;-82
2021/11/24 09:44:19;;;;;;;10.73;3.38;;;8.20;99.90;;;6.72;100.00;101596.91;4917118;28;20510;-81
2021/11/24 09:46:59;;;;;;;7.15;3.22;;;8.30;99.90;;;6.75;100.00;101608.16;4906079;28;20041;-82
2021/11/24 09:49:34;;;;;;;7.25;3.55;;;;;;;6.75;100.00;101602.06;4904082;28;20030;-83
2021/11/24 09:52:09;;;;;;;4.97;2.73;;;8.30;99.90;;;6.83;100.00;101594.09;4889876;28;20066;-82
2021/11/24 09:55:02;;;;;;;7.05;3.30;;;8.40;99.90;;;6.72;100.00;101636.16;4885472;28;20294;-82
2021/11/24 09:57:48;;;;;;;8.00;2.78;;;8.20;99.90;;;6.69;100.00;101814.16;4917001;28;20544;-83
2021/11/24 10:00:16;;;;;;;5.32;2.88;;;8.20;99.90;;;6.65;100.00;102213.81;4866274;28;20549;-80
2021/11/24 10:03:15;;;;;;;4.53;2.50;;;8.10;99.90;;;6.61;100.00;101713.94;4899799;28;20426;-80
2021/11/24 10:05:48;;;;;;;5.90;2.80;;;8.10;99.90;;;6.67;100.00;101633.59;4929147;28;20039;-80
2021/11/24 10:08:32;;;;;;;7.05;2.83;;;8.20;99.90;;;6.80;100.00;101723.25;4926878;28;20098;-80
2021/11/24 10:11:12;;;;;;;6.72;3.15;;;8.30;99.90;;;6.90;100.00;101758.91;4887210;28;20038;-79
2021/11/24 10:14:40;;;;;;;4.80;2.33;;;8.40;99.90;;;6.86;100.00;101714.47;4906109;28;20043;-80
2021/11/24 10:17:36;;;;;;;4.80;1.77;;;8.30;99.90;;;6.81;100.00;101716.31;4925843;28;20050;-80
2021/11/24 10:21:03;;;;;;;6.90;1.98;;;8.30;99.90;;;6.84;100.00;101674.34;4916620;28;20154;-80
2021/11/24 10:24:06;;;;;;;8.45;2.55;;;8.30;99.90;;;6.89;100.00;101662.03;4918339;28;20098;-79
2021/11/24 10:27:06;;;;;;;5.45;2.05;;;8.30;99.90;;;6.83;100.00;101647.31;4899835;28;20046;-80
2021/11/24 10:30:11;;;;;;;5.07;2.38;;;8.50;99.90;;;6.88;100.00;101649.84;4909143;28;20039;-80
2021/11/24 10:32:45;;;;;;;7.38;2.83;;;8.50;99.90;;;6.95;100.00;101651.47;4918997;28;20523;-80